sensor_id;sensor_type;location;lat;lon;timestamp;P1;durP1;ratioP1;P2;durP2;ratioP2
7047;SDS011;3565;53.254;10.352;2024-02-15T00:02:08;15.47;;;9.20;;
7047;SDS011;3565;53.254;10.352;2024-02-15T00:04:46;19.93;;;10.10;;
7047;SDS011;3565;53.254;10.352;2024-02-15T00:07:15;15.63;;;9.70;;
7047;SDS011;3565;53.254;10.352;2024-02-15T00:09:45;17.33;;;9.17;;
7047;SDS011;3565;53.254;10.352;2024-02-15T00:14:52;16.17;;;9.50;;
7047;SDS011;3565;53.254;10.352;2024-02-15T00:17:22;14.93;;;8.53;;
7047;SDS011;3565;53.254;10.352;2024-02-15T00:19:51;14.70;;;9.03;;
7047;SDS011;3565;53.254;10.352;2024-02-15T00:24:58;15.53;;;8.70;;
7047;SDS011;3565;53.254;10.352;2024-02-15T00:27:27;15.00;;;8.80;;
7047;SDS011;3565;53.254;10.352;2024-02-15T00:29:58;12.90;;;8.03;;
7047;SDS011;3565;53.254;10.352;2024-02-15T00:32:27;14.73;;;7.73;;
7047;SDS011;3565;53.254;10.352;2024-02-15T00:35:07;13.43;;;7.80;;
7047;SDS011;3565;53.254;10.352;2024-02-15T00:37:35;11.80;;;7.60;;
7047;SDS011;3565;53.254;10.352;2024-02-15T00:40:06;14.67;;;8.03;;
7047;SDS011;3565;53.254;10.352;2024-02-15T00:42:46;14.00;;;7.50;;
7047;SDS011;3565;53.254;10.352;2024-02-15T00:45:15;13.27;;;7.63;;
7047;SDS011;3565;53.254;10.352;2024-02-15T00:47:44;13.67;;;8.60;;
7047;SDS011;3565;53.254;10.352;2024-02-15T00:52:50;14.50;;;8.60;;
7047;SDS011;3565;53.254;10.352;2024-02-15T00:55:19;17.07;;;10.20;;
7047;SDS011;3565;53.254;10.352;2024-02-15T00:57:48;17.47;;;9.63;;
7047;SDS011;3565;53.254;10.352;2024-02-15T01:02:57;18.17;;;10.27;;
7047;SDS011;3565;53.254;10.352;2024-02-15T01:05:27;16.90;;;10.20;;
7047;SDS011;3565;53.254;10.352;2024-02-15T01:07:56;17.90;;;10.10;;
7047;SDS011;3565;53.254;10.352;2024-02-15T01:10:25;18.93;;;10.50;;
7047;SDS011;3565;53.254;10.352;2024-02-15T01:15:33;19.07;;;10.47;;
7047;SDS011;3565;53.254;10.352;2024-02-15T01:18:04;18.30;;;10.47;;
7047;SDS011;3565;53.254;10.352;2024-02-15T01:23:10;22.20;;;11.07;;
7047;SDS011;3565;53.254;10.352;2024-02-15T01:25:39;18.30;;;10.03;;
7047;SDS011;3565;53.254;10.352;2024-02-15T01:28:07;19.57;;;11.03;;
7047;SDS011;3565;53.254;10.352;2024-02-15T01:30:37;19.93;;;11.03;;
7047;SDS011;3565;53.254;10.352;2024-02-15T01:33:06;22.33;;;11.53;;
7047;SDS011;3565;53.254;10.352;2024-02-15T01:38:13;23.30;;;11.37;;
7047;SDS011;3565;53.254;10.352;2024-02-15T01:40:43;19.70;;;10.80;;
7047;SDS011;3565;53.254;10.352;2024-02-15T01:43:17;23.90;;;11.70;;
7047;SDS011;3565;53.254;10.352;2024-02-15T01:45:57;19.67;;;11.20;;
7047;SDS011;3565;53.254;10.352;2024-02-15T01:48:28;22.20;;;11.73;;
7047;SDS011;3565;53.254;10.352;2024-02-15T01:51:08;22.90;;;12.23;;
7047;SDS011;3565;53.254;10.352;2024-02-15T01:53:42;23.00;;;11.80;;
7047;SDS011;3565;53.254;10.352;2024-02-15T01:58:49;23.07;;;11.40;;
7047;SDS011;3565;53.254;10.352;2024-02-15T02:03:58;22.57;;;11.40;;
7047;SDS011;3565;53.254;10.352;2024-02-15T02:09:14;22.90;;;12.00;;
7047;SDS011;3565;53.254;10.352;2024-02-15T02:11:44;24.37;;;12.03;;
7047;SDS011;3565;53.254;10.352;2024-02-15T02:14:23;26.53;;;12.80;;
7047;SDS011;3565;53.254;10.352;2024-02-15T02:16:53;25.03;;;12.20;;
7047;SDS011;3565;53.254;10.352;2024-02-15T02:22:01;22.50;;;11.77;;
7047;SDS011;3565;53.254;10.352;2024-02-15T02:24:33;23.90;;;11.27;;
7047;SDS011;3565;53.254;10.352;2024-02-15T02:27:06;24.07;;;11.87;;
7047;SDS011;3565;53.254;10.352;2024-02-15T02:29:42;21.87;;;11.13;;
7047;SDS011;3565;53.254;10.352;2024-02-15T02:34:49;21.00;;;10.87;;
7047;SDS011;3565;53.254;10.352;2024-02-15T02:37:22;21.57;;;10.70;;
7047;SDS011;3565;53.254;10.352;2024-02-15T02:40:03;20.30;;;10.27;;
7047;SDS011;3565;53.254;10.352;2024-02-15T02:42:39;19.07;;;9.53;;
7047;SDS011;3565;53.254;10.352;2024-02-15T02:45:24;19.33;;;10.37;;
7047;SDS011;3565;53.254;10.352;2024-02-15T02:50:34;17.27;;;9.57;;
7047;SDS011;3565;53.254;10.352;2024-02-15T02:53:04;20.13;;;9.97;;
7047;SDS011;3565;53.254;10.352;2024-02-15T02:55:35;14.90;;;8.43;;
7047;SDS011;3565;53.254;10.352;2024-02-15T02:58:06;17.43;;;9.83;;
7047;SDS011;3565;53.254;10.352;2024-02-15T03:03:17;17.00;;;9.57;;
7047;SDS011;3565;53.254;10.352;2024-02-15T03:08:30;15.07;;;8.47;;
7047;SDS011;3565;53.254;10.352;2024-02-15T03:11:09;14.00;;;8.23;;
7047;SDS011;3565;53.254;10.352;2024-02-15T03:13:44;15.50;;;7.80;;
7047;SDS011;3565;53.254;10.352;2024-02-15T03:16:13;13.07;;;8.03;;
7047;SDS011;3565;53.254;10.352;2024-02-15T03:18:43;14.30;;;8.10;;
7047;SDS011;3565;53.254;10.352;2024-02-15T03:21:25;13.97;;;7.97;;
7047;SDS011;3565;53.254;10.352;2024-02-15T03:23:56;15.50;;;8.47;;
7047;SDS011;3565;53.254;10.352;2024-02-15T03:29:07;13.30;;;7.90;;
7047;SDS011;3565;53.254;10.352;2024-02-15T03:31:42;13.17;;;7.53;;
7047;SDS011;3565;53.254;10.352;2024-02-15T03:34:13;12.70;;;7.73;;
7047;SDS011;3565;53.254;10.352;2024-02-15T03:39:23;13.77;;;7.90;;
7047;SDS011;3565;53.254;10.352;2024-02-15T03:41:54;14.80;;;8.33;;
7047;SDS011;3565;53.254;10.352;2024-02-15T03:44:26;12.67;;;7.67;;
7047;SDS011;3565;53.254;10.352;2024-02-15T03:49:35;14.57;;;8.27;;
7047;SDS011;3565;53.254;10.352;2024-02-15T03:52:07;14.30;;;7.80;;
7047;SDS011;3565;53.254;10.352;2024-02-15T03:54:38;14.17;;;7.70;;
7047;SDS011;3565;53.254;10.352;2024-02-15T03:59:48;16.13;;;8.23;;
7047;SDS011;3565;53.254;10.352;2024-02-15T04:02:19;15.20;;;7.97;;
7047;SDS011;3565;53.254;10.352;2024-02-15T04:04:50;15.00;;;7.63;;
7047;SDS011;3565;53.254;10.352;2024-02-15T04:09:59;15.73;;;8.17;;
7047;SDS011;3565;53.254;10.352;2024-02-15T04:12:31;14.43;;;8.97;;
7047;SDS011;3565;53.254;10.352;2024-02-15T04:15:00;15.00;;;8.07;;
7047;SDS011;3565;53.254;10.352;2024-02-15T04:20:14;15.30;;;8.57;;
7047;SDS011;3565;53.254;10.352;2024-02-15T04:22:44;13.43;;;8.17;;
7047;SDS011;3565;53.254;10.352;2024-02-15T04:25:14;15.70;;;8.47;;
7047;SDS011;3565;53.254;10.352;2024-02-15T04:27:46;17.17;;;8.90;;
7047;SDS011;3565;53.254;10.352;2024-02-15T04:30:15;16.73;;;9.07;;
7047;SDS011;3565;53.254;10.352;2024-02-15T04:32:46;17.43;;;9.07;;
7047;SDS011;3565;53.254;10.352;2024-02-15T04:35:18;16.80;;;9.23;;
7047;SDS011;3565;53.254;10.352;2024-02-15T04:37:48;16.50;;;9.03;;
7047;SDS011;3565;53.254;10.352;2024-02-15T04:40:19;18.53;;;9.33;;
7047;SDS011;3565;53.254;10.352;2024-02-15T04:42:58;16.90;;;9.33;;
7047;SDS011;3565;53.254;10.352;2024-02-15T04:48:06;15.40;;;9.17;;
7047;SDS011;3565;53.254;10.352;2024-02-15T04:50:36;16.73;;;9.00;;
7047;SDS011;3565;53.254;10.352;2024-02-15T04:53:07;15.37;;;8.40;;
7047;SDS011;3565;53.254;10.352;2024-02-15T04:58:14;15.57;;;8.87;;
7047;SDS011;3565;53.254;10.352;2024-02-15T05:00:44;20.40;;;9.30;;
7047;SDS011;3565;53.254;10.352;2024-02-15T05:05:50;18.50;;;9.97;;
7047;SDS011;3565;53.254;10.352;2024-02-15T05:08:19;18.37;;;9.23;;
7047;SDS011;3565;53.254;10.352;2024-02-15T05:10:48;20.73;;;9.50;;
7047;SDS011;3565;53.254;10.352;2024-02-15T05:15:56;24.07;;;10.23;;
7047;SDS011;3565;53.254;10.352;2024-02-15T05:18:25;20.87;;;11.30;;
7047;SDS011;3565;53.254;10.352;2024-02-15T05:21:07;21.97;;;10.23;;
7047;SDS011;3565;53.254;10.352;2024-02-15T05:26:14;19.17;;;10.13;;
7047;SDS011;3565;53.254;10.352;2024-02-15T05:28:46;21.57;;;10.37;;
7047;SDS011;3565;53.254;10.352;2024-02-15T05:31:24;20.70;;;10.03;;
7047;SDS011;3565;53.254;10.352;2024-02-15T05:33:54;21.30;;;10.60;;
7047;SDS011;3565;53.254;10.352;2024-02-15T05:36:24;21.43;;;11.13;;
7047;SDS011;3565;53.254;10.352;2024-02-15T05:41:30;21.27;;;10.07;;
7047;SDS011;3565;53.254;10.352;2024-02-15T05:46:41;23.53;;;10.70;;
7047;SDS011;3565;53.254;10.352;2024-02-15T05:49:10;19.83;;;10.47;;
7047;SDS011;3565;53.254;10.352;2024-02-15T05:51:41;20.77;;;10.80;;
7047;SDS011;3565;53.254;10.352;2024-02-15T05:54:11;24.63;;;11.83;;
7047;SDS011;3565;53.254;10.352;2024-02-15T05:59:17;21.00;;;11.27;;
7047;SDS011;3565;53.254;10.352;2024-02-15T06:01:47;20.60;;;11.17;;
7047;SDS011;3565;53.254;10.352;2024-02-15T06:04:17;22.33;;;11.40;;
7047;SDS011;3565;53.254;10.352;2024-02-15T06:09:23;20.73;;;9.93;;
7047;SDS011;3565;53.254;10.352;2024-02-15T06:11:53;19.70;;;10.43;;
7047;SDS011;3565;53.254;10.352;2024-02-15T06:17:02;22.10;;;10.73;;
7047;SDS011;3565;53.254;10.352;2024-02-15T06:19:32;25.17;;;11.83;;
7047;SDS011;3565;53.254;10.352;2024-02-15T06:24:38;24.87;;;12.00;;
7047;SDS011;3565;53.254;10.352;2024-02-15T06:27:08;24.00;;;11.63;;
7047;SDS011;3565;53.254;10.352;2024-02-15T06:29:38;24.50;;;12.27;;
7047;SDS011;3565;53.254;10.352;2024-02-15T06:35:04;23.53;;;12.30;;
7047;SDS011;3565;53.254;10.352;2024-02-15T06:37:51;24.47;;;12.20;;
7047;SDS011;3565;53.254;10.352;2024-02-15T06:40:38;22.40;;;12.00;;
7047;SDS011;3565;53.254;10.352;2024-02-15T06:43:07;24.27;;;11.93;;
7047;SDS011;3565;53.254;10.352;2024-02-15T06:45:36;26.77;;;12.60;;
7047;SDS011;3565;53.254;10.352;2024-02-15T06:48:08;25.17;;;11.63;;
7047;SDS011;3565;53.254;10.352;2024-02-15T06:50:48;25.33;;;11.77;;
7047;SDS011;3565;53.254;10.352;2024-02-15T06:53:19;25.53;;;11.87;;
7047;SDS011;3565;53.254;10.352;2024-02-15T06:55:48;25.83;;;12.40;;
7047;SDS011;3565;53.254;10.352;2024-02-15T06:58:17;22.67;;;10.73;;
7047;SDS011;3565;53.254;10.352;2024-02-15T07:00:48;22.27;;;11.37;;
7047;SDS011;3565;53.254;10.352;2024-02-15T07:05:54;22.93;;;11.83;;
7047;SDS011;3565;53.254;10.352;2024-02-15T07:08:24;23.53;;;11.33;;
7047;SDS011;3565;53.254;10.352;2024-02-15T07:13:31;24.70;;;10.83;;
7047;SDS011;3565;53.254;10.352;2024-02-15T07:16:01;25.47;;;11.47;;
7047;SDS011;3565;53.254;10.352;2024-02-15T07:21:10;23.27;;;11.07;;
7047;SDS011;3565;53.254;10.352;2024-02-15T07:23:40;21.27;;;11.27;;
7047;SDS011;3565;53.254;10.352;2024-02-15T07:26:09;21.47;;;10.77;;
7047;SDS011;3565;53.254;10.352;2024-02-15T07:31:18;24.43;;;11.40;;
7047;SDS011;3565;53.254;10.352;2024-02-15T07:33:47;25.77;;;11.77;;
7047;SDS011;3565;53.254;10.352;2024-02-15T07:36:18;21.30;;;10.27;;
7047;SDS011;3565;53.254;10.352;2024-02-15T07:38:50;19.70;;;10.43;;
7047;SDS011;3565;53.254;10.352;2024-02-15T07:41:29;21.57;;;10.77;;
7047;SDS011;3565;53.254;10.352;2024-02-15T07:43:59;20.37;;;10.83;;
7047;SDS011;3565;53.254;10.352;2024-02-15T07:49:05;24.03;;;10.93;;
7047;SDS011;3565;53.254;10.352;2024-02-15T07:51:34;21.57;;;10.47;;
7047;SDS011;3565;53.254;10.352;2024-02-15T07:54:04;21.73;;;10.70;;
7047;SDS011;3565;53.254;10.352;2024-02-15T07:59:11;18.23;;;9.80;;
7047;SDS011;3565;53.254;10.352;2024-02-15T08:01:41;16.90;;;9.50;;
7047;SDS011;3565;53.254;10.352;2024-02-15T08:04:12;18.23;;;8.87;;
7047;SDS011;3565;53.254;10.352;2024-02-15T08:09:18;15.83;;;9.33;;
7047;SDS011;3565;53.254;10.352;2024-02-15T08:11:57;16.93;;;9.40;;
7047;SDS011;3565;53.254;10.352;2024-02-15T08:14:28;17.27;;;9.37;;
7047;SDS011;3565;53.254;10.352;2024-02-15T08:19:35;15.93;;;9.17;;
7047;SDS011;3565;53.254;10.352;2024-02-15T08:22:05;13.40;;;8.27;;
7047;SDS011;3565;53.254;10.352;2024-02-15T08:24:44;14.73;;;7.53;;
7047;SDS011;3565;53.254;10.352;2024-02-15T08:27:14;13.83;;;7.70;;
7047;SDS011;3565;53.254;10.352;2024-02-15T08:32:20;12.47;;;7.10;;
7047;SDS011;3565;53.254;10.352;2024-02-15T08:34:50;10.80;;;6.87;;
7047;SDS011;3565;53.254;10.352;2024-02-15T08:39:57;9.10;;;6.17;;
7047;SDS011;3565;53.254;10.352;2024-02-15T08:42:27;13.23;;;7.37;;
7047;SDS011;3565;53.254;10.352;2024-02-15T08:45:09;10.93;;;6.43;;
7047;SDS011;3565;53.254;10.352;2024-02-15T08:50:16;10.80;;;6.57;;
7047;SDS011;3565;53.254;10.352;2024-02-15T08:52:45;9.97;;;6.27;;
7047;SDS011;3565;53.254;10.352;2024-02-15T08:55:15;9.17;;;6.13;;
7047;SDS011;3565;53.254;10.352;2024-02-15T08:57:54;10.20;;;6.30;;
7047;SDS011;3565;53.254;10.352;2024-02-15T09:00:23;8.83;;;6.13;;
7047;SDS011;3565;53.254;10.352;2024-02-15T09:02:53;9.10;;;6.00;;
7047;SDS011;3565;53.254;10.352;2024-02-15T09:08:00;10.60;;;6.47;;
7047;SDS011;3565;53.254;10.352;2024-02-15T09:10:31;9.50;;;6.20;;
7047;SDS011;3565;53.254;10.352;2024-02-15T09:13:09;11.23;;;6.60;;
7047;SDS011;3565;53.254;10.352;2024-02-15T09:18:15;9.87;;;6.47;;
7047;SDS011;3565;53.254;10.352;2024-02-15T09:20:47;9.80;;;6.20;;
7047;SDS011;3565;53.254;10.352;2024-02-15T09:23:18;11.00;;;6.80;;
7047;SDS011;3565;53.254;10.352;2024-02-15T09:25:48;10.80;;;6.63;;
7047;SDS011;3565;53.254;10.352;2024-02-15T09:28:18;10.87;;;6.63;;
7047;SDS011;3565;53.254;10.352;2024-02-15T09:30:48;10.57;;;6.80;;
7047;SDS011;3565;53.254;10.352;2024-02-15T09:35:57;12.67;;;7.57;;
7047;SDS011;3565;53.254;10.352;2024-02-15T09:38:26;10.67;;;6.87;;
7047;SDS011;3565;53.254;10.352;2024-02-15T09:43:32;12.40;;;7.30;;
7047;SDS011;3565;53.254;10.352;2024-02-15T09:46:01;12.73;;;8.40;;
7047;SDS011;3565;53.254;10.352;2024-02-15T09:51:08;15.17;;;8.07;;
7047;SDS011;3565;53.254;10.352;2024-02-15T09:53:39;14.47;;;8.70;;
7047;SDS011;3565;53.254;10.352;2024-02-15T09:58:46;16.87;;;9.57;;
7047;SDS011;3565;53.254;10.352;2024-02-15T10:01:17;19.63;;;10.53;;
7047;SDS011;3565;53.254;10.352;2024-02-15T10:03:49;16.50;;;9.90;;
7047;SDS011;3565;53.254;10.352;2024-02-15T10:06:20;17.13;;;9.73;;
7047;SDS011;3565;53.254;10.352;2024-02-15T10:08:49;16.57;;;9.17;;
7047;SDS011;3565;53.254;10.352;2024-02-15T10:14:01;17.43;;;10.67;;
7047;SDS011;3565;53.254;10.352;2024-02-15T10:16:47;16.23;;;10.23;;
7047;SDS011;3565;53.254;10.352;2024-02-15T10:19:16;19.87;;;11.70;;
7047;SDS011;3565;53.254;10.352;2024-02-15T10:24:24;25.83;;;11.50;;
7047;SDS011;3565;53.254;10.352;2024-02-15T10:29:38;19.43;;;11.03;;
7047;SDS011;3565;53.254;10.352;2024-02-15T10:32:07;17.87;;;11.67;;
7047;SDS011;3565;53.254;10.352;2024-02-15T10:34:47;22.53;;;12.47;;
7047;SDS011;3565;53.254;10.352;2024-02-15T10:37:16;22.50;;;12.87;;
7047;SDS011;3565;53.254;10.352;2024-02-15T10:42:24;24.90;;;14.27;;
7047;SDS011;3565;53.254;10.352;2024-02-15T10:44:54;21.23;;;12.47;;
7047;SDS011;3565;53.254;10.352;2024-02-15T10:50:01;29.10;;;14.23;;
7047;SDS011;3565;53.254;10.352;2024-02-15T10:52:32;22.30;;;13.70;;
7047;SDS011;3565;53.254;10.352;2024-02-15T10:55:03;29.97;;;15.50;;
7047;SDS011;3565;53.254;10.352;2024-02-15T11:00:13;27.23;;;14.23;;
7047;SDS011;3565;53.254;10.352;2024-02-15T11:02:50;30.77;;;14.03;;
7047;SDS011;3565;53.254;10.352;2024-02-15T11:05:21;25.00;;;14.77;;
7047;SDS011;3565;53.254;10.352;2024-02-15T11:08:00;24.83;;;13.60;;
7047;SDS011;3565;53.254;10.352;2024-02-15T11:10:32;23.53;;;13.93;;
7047;SDS011;3565;53.254;10.352;2024-02-15T11:13:03;24.83;;;14.30;;
7047;SDS011;3565;53.254;10.352;2024-02-15T11:21:52;24.23;;;14.00;;
7047;SDS011;3565;53.254;10.352;2024-02-15T11:24:27;24.60;;;14.13;;
7047;SDS011;3565;53.254;10.352;2024-02-15T11:26:58;22.43;;;13.50;;
7047;SDS011;3565;53.254;10.352;2024-02-15T11:29:50;25.27;;;14.93;;
7047;SDS011;3565;53.254;10.352;2024-02-15T11:35:12;20.43;;;12.80;;
7047;SDS011;3565;53.254;10.352;2024-02-15T11:37:52;21.93;;;12.07;;
7047;SDS011;3565;53.254;10.352;2024-02-15T11:40:24;19.67;;;12.90;;
7047;SDS011;3565;53.254;10.352;2024-02-15T11:45:32;20.00;;;12.63;;
7047;SDS011;3565;53.254;10.352;2024-02-15T11:48:04;20.77;;;12.70;;
7047;SDS011;3565;53.254;10.352;2024-02-15T11:50:44;20.73;;;11.70;;
7047;SDS011;3565;53.254;10.352;2024-02-15T11:53:14;16.63;;;11.10;;
7047;SDS011;3565;53.254;10.352;2024-02-15T11:58:21;19.10;;;11.03;;
7047;SDS011;3565;53.254;10.352;2024-02-15T12:00:52;19.90;;;11.30;;
7047;SDS011;3565;53.254;10.352;2024-02-15T12:03:35;17.80;;;10.33;;
7047;SDS011;3565;53.254;10.352;2024-02-15T12:08:59;14.33;;;9.13;;
7047;SDS011;3565;53.254;10.352;2024-02-15T12:11:47;16.03;;;9.10;;
7047;SDS011;3565;53.254;10.352;2024-02-15T12:14:26;15.77;;;9.10;;
7047;SDS011;3565;53.254;10.352;2024-02-15T12:19:50;18.53;;;8.70;;
7047;SDS011;3565;53.254;10.352;2024-02-15T12:22:22;14.10;;;9.00;;
7047;SDS011;3565;53.254;10.352;2024-02-15T12:24:54;12.27;;;7.60;;
7047;SDS011;3565;53.254;10.352;2024-02-15T12:27:26;11.70;;;7.67;;
7047;SDS011;3565;53.254;10.352;2024-02-15T12:29:56;11.43;;;7.67;;
7047;SDS011;3565;53.254;10.352;2024-02-15T12:32:26;12.77;;;8.17;;
7047;SDS011;3565;53.254;10.352;2024-02-15T12:35:09;11.37;;;7.83;;
7047;SDS011;3565;53.254;10.352;2024-02-15T12:37:41;9.60;;;7.13;;
7047;SDS011;3565;53.254;10.352;2024-02-15T12:40:10;10.93;;;6.90;;
7047;SDS011;3565;53.254;10.352;2024-02-15T12:45:20;9.63;;;5.90;;
7047;SDS011;3565;53.254;10.352;2024-02-15T12:47:50;8.00;;;6.03;;
7047;SDS011;3565;53.254;10.352;2024-02-15T12:52:57;9.90;;;6.63;;
7047;SDS011;3565;53.254;10.352;2024-02-15T12:55:28;9.23;;;5.97;;
7047;SDS011;3565;53.254;10.352;2024-02-15T12:58:01;9.73;;;5.67;;
7047;SDS011;3565;53.254;10.352;2024-02-15T13:03:09;9.33;;;7.00;;
7047;SDS011;3565;53.254;10.352;2024-02-15T13:05:41;6.70;;;4.90;;
7047;SDS011;3565;53.254;10.352;2024-02-15T13:08:10;5.30;;;4.40;;
7047;SDS011;3565;53.254;10.352;2024-02-15T13:13:18;6.20;;;4.57;;
7047;SDS011;3565;53.254;10.352;2024-02-15T13:15:47;7.43;;;4.30;;
7047;SDS011;3565;53.254;10.352;2024-02-15T13:18:18;5.37;;;3.93;;
7047;SDS011;3565;53.254;10.352;2024-02-15T13:23:25;5.00;;;3.30;;
7047;SDS011;3565;53.254;10.352;2024-02-15T13:25:54;4.03;;;3.63;;
7047;SDS011;3565;53.254;10.352;2024-02-15T13:28:24;4.73;;;3.63;;
7047;SDS011;3565;53.254;10.352;2024-02-15T13:30:53;5.73;;;3.77;;
7047;SDS011;3565;53.254;10.352;2024-02-15T13:33:22;4.07;;;3.67;;
7047;SDS011;3565;53.254;10.352;2024-02-15T13:35:53;3.77;;;3.30;;
7047;SDS011;3565;53.254;10.352;2024-02-15T13:40:59;4.17;;;3.70;;
7047;SDS011;3565;53.254;10.352;2024-02-15T13:46:06;4.00;;;3.60;;
7047;SDS011;3565;53.254;10.352;2024-02-15T13:48:35;4.80;;;3.57;;
7047;SDS011;3565;53.254;10.352;2024-02-15T13:51:04;4.13;;;3.30;;
7047;SDS011;3565;53.254;10.352;2024-02-15T13:56:12;5.17;;;4.00;;
7047;SDS011;3565;53.254;10.352;2024-02-15T13:58:42;4.63;;;3.73;;
7047;SDS011;3565;53.254;10.352;2024-02-15T14:01:11;4.03;;;3.63;;
7047;SDS011;3565;53.254;10.352;2024-02-15T14:06:18;5.70;;;4.10;;
7047;SDS011;3565;53.254;10.352;2024-02-15T14:08:47;5.57;;;4.60;;
7047;SDS011;3565;53.254;10.352;2024-02-15T14:11:26;4.40;;;3.90;;
7047;SDS011;3565;53.254;10.352;2024-02-15T14:13:55;5.17;;;4.37;;
7047;SDS011;3565;53.254;10.352;2024-02-15T14:19:02;5.53;;;4.63;;
7047;SDS011;3565;53.254;10.352;2024-02-15T14:24:09;6.33;;;4.40;;
7047;SDS011;3565;53.254;10.352;2024-02-15T14:26:39;6.80;;;4.77;;
7047;SDS011;3565;53.254;10.352;2024-02-15T14:29:09;6.53;;;5.00;;
7047;SDS011;3565;53.254;10.352;2024-02-15T14:34:17;6.63;;;5.27;;
7047;SDS011;3565;53.254;10.352;2024-02-15T14:36:47;8.63;;;5.50;;
7047;SDS011;3565;53.254;10.352;2024-02-15T14:39:15;9.03;;;5.37;;
7047;SDS011;3565;53.254;10.352;2024-02-15T14:44:22;5.47;;;4.90;;
7047;SDS011;3565;53.254;10.352;2024-02-15T14:46:51;5.93;;;4.67;;
7047;SDS011;3565;53.254;10.352;2024-02-15T14:49:20;6.73;;;4.83;;
7047;SDS011;3565;53.254;10.352;2024-02-15T14:54:27;6.47;;;5.03;;
7047;SDS011;3565;53.254;10.352;2024-02-15T14:56:57;6.03;;;4.97;;
7047;SDS011;3565;53.254;10.352;2024-02-15T14:59:26;6.00;;;5.03;;
7047;SDS011;3565;53.254;10.352;2024-02-15T15:02:05;5.73;;;4.90;;
7047;SDS011;3565;53.254;10.352;2024-02-15T15:04:35;7.50;;;4.80;;
7047;SDS011;3565;53.254;10.352;2024-02-15T15:07:05;9.63;;;5.23;;
7047;SDS011;3565;53.254;10.352;2024-02-15T15:12:30;6.47;;;5.50;;
7047;SDS011;3565;53.254;10.352;2024-02-15T15:15:07;5.57;;;4.83;;
7047;SDS011;3565;53.254;10.352;2024-02-15T15:17:39;8.07;;;5.50;;
7047;SDS011;3565;53.254;10.352;2024-02-15T15:20:11;8.30;;;5.13;;
7047;SDS011;3565;53.254;10.352;2024-02-15T15:25:19;8.13;;;6.80;;
7047;SDS011;3565;53.254;10.352;2024-02-15T15:30:28;6.93;;;5.10;;
7047;SDS011;3565;53.254;10.352;2024-02-15T15:32:57;5.87;;;5.07;;
7047;SDS011;3565;53.254;10.352;2024-02-15T15:35:27;7.93;;;4.73;;
7047;SDS011;3565;53.254;10.352;2024-02-15T15:40:25;7.73;;;5.60;;
7047;SDS011;3565;53.254;10.352;2024-02-15T15:42:55;6.20;;;5.10;;
7047;SDS011;3565;53.254;10.352;2024-02-15T15:45:24;6.10;;;4.77;;
7047;SDS011;3565;53.254;10.352;2024-02-15T15:47:55;6.07;;;5.00;;
7047;SDS011;3565;53.254;10.352;2024-02-15T15:50:26;6.47;;;4.57;;
7047;SDS011;3565;53.254;10.352;2024-02-15T15:52:58;7.20;;;4.90;;
7047;SDS011;3565;53.254;10.352;2024-02-15T15:58:06;6.87;;;5.00;;
7047;SDS011;3565;53.254;10.352;2024-02-15T16:00:36;7.13;;;5.50;;
7047;SDS011;3565;53.254;10.352;2024-02-15T16:03:07;6.73;;;4.80;;
7047;SDS011;3565;53.254;10.352;2024-02-15T16:08:16;6.83;;;4.60;;
7047;SDS011;3565;53.254;10.352;2024-02-15T16:10:47;6.93;;;4.60;;
7047;SDS011;3565;53.254;10.352;2024-02-15T16:13:16;9.83;;;5.50;;
7047;SDS011;3565;53.254;10.352;2024-02-15T16:15:46;9.07;;;4.77;;
7047;SDS011;3565;53.254;10.352;2024-02-15T16:18:18;7.70;;;4.77;;
7047;SDS011;3565;53.254;10.352;2024-02-15T16:20:48;6.57;;;4.93;;
7047;SDS011;3565;53.254;10.352;2024-02-15T16:23:17;6.63;;;5.30;;
7047;SDS011;3565;53.254;10.352;2024-02-15T16:25:47;6.97;;;5.13;;
7047;SDS011;3565;53.254;10.352;2024-02-15T16:28:17;8.03;;;4.87;;
7047;SDS011;3565;53.254;10.352;2024-02-15T16:30:47;8.47;;;4.87;;
7047;SDS011;3565;53.254;10.352;2024-02-15T16:33:16;6.73;;;4.63;;
7047;SDS011;3565;53.254;10.352;2024-02-15T16:35:55;8.17;;;5.00;;
7047;SDS011;3565;53.254;10.352;2024-02-15T16:38:24;8.77;;;5.80;;
7047;SDS011;3565;53.254;10.352;2024-02-15T16:40:53;10.37;;;5.20;;
7047;SDS011;3565;53.254;10.352;2024-02-15T16:43:32;9.50;;;5.40;;
7047;SDS011;3565;53.254;10.352;2024-02-15T16:46:01;5.97;;;4.90;;
7047;SDS011;3565;53.254;10.352;2024-02-15T16:48:31;8.20;;;5.17;;
7047;SDS011;3565;53.254;10.352;2024-02-15T16:51:00;5.63;;;4.77;;
7047;SDS011;3565;53.254;10.352;2024-02-15T16:53:29;6.50;;;4.50;;
7047;SDS011;3565;53.254;10.352;2024-02-15T16:55:58;6.17;;;4.60;;
7047;SDS011;3565;53.254;10.352;2024-02-15T16:58:29;5.40;;;4.60;;
7047;SDS011;3565;53.254;10.352;2024-02-15T17:03:36;7.13;;;5.43;;
7047;SDS011;3565;53.254;10.352;2024-02-15T17:06:06;10.10;;;5.37;;
7047;SDS011;3565;53.254;10.352;2024-02-15T17:11:13;8.83;;;5.60;;
7047;SDS011;3565;53.254;10.352;2024-02-15T17:13:43;9.03;;;5.03;;
7047;SDS011;3565;53.254;10.352;2024-02-15T17:16:14;7.90;;;5.30;;
7047;SDS011;3565;53.254;10.352;2024-02-15T17:21:20;5.93;;;4.43;;
7047;SDS011;3565;53.254;10.352;2024-02-15T17:23:50;5.63;;;4.63;;
7047;SDS011;3565;53.254;10.352;2024-02-15T17:26:20;8.87;;;5.00;;
7047;SDS011;3565;53.254;10.352;2024-02-15T17:28:49;7.10;;;4.67;;
7047;SDS011;3565;53.254;10.352;2024-02-15T17:31:19;5.10;;;4.50;;
7047;SDS011;3565;53.254;10.352;2024-02-15T17:33:49;5.90;;;4.43;;
7047;SDS011;3565;53.254;10.352;2024-02-15T17:36:19;6.17;;;4.57;;
7047;SDS011;3565;53.254;10.352;2024-02-15T17:38:51;7.03;;;4.30;;
7047;SDS011;3565;53.254;10.352;2024-02-15T17:41:22;8.40;;;4.77;;
7047;SDS011;3565;53.254;10.352;2024-02-15T17:43:56;5.97;;;4.17;;
7047;SDS011;3565;53.254;10.352;2024-02-15T17:49:18;5.37;;;4.60;;
7047;SDS011;3565;53.254;10.352;2024-02-15T17:51:49;6.30;;;4.80;;
7047;SDS011;3565;53.254;10.352;2024-02-15T17:54:18;4.83;;;4.10;;
7047;SDS011;3565;53.254;10.352;2024-02-15T17:56:52;6.10;;;4.47;;
7047;SDS011;3565;53.254;10.352;2024-02-15T17:59:22;6.20;;;5.20;;
7047;SDS011;3565;53.254;10.352;2024-02-15T18:01:52;11.73;;;6.00;;
7047;SDS011;3565;53.254;10.352;2024-02-15T18:04:22;6.60;;;4.13;;
7047;SDS011;3565;53.254;10.352;2024-02-15T18:06:51;6.50;;;4.47;;
7047;SDS011;3565;53.254;10.352;2024-02-15T18:11:58;6.20;;;4.60;;
7047;SDS011;3565;53.254;10.352;2024-02-15T18:17:06;6.07;;;4.70;;
7047;SDS011;3565;53.254;10.352;2024-02-15T18:19:35;6.67;;;4.37;;
7047;SDS011;3565;53.254;10.352;2024-02-15T18:22:04;6.90;;;4.70;;
7047;SDS011;3565;53.254;10.352;2024-02-15T18:27:10;7.57;;;4.80;;
7047;SDS011;3565;53.254;10.352;2024-02-15T18:29:40;6.33;;;4.83;;
7047;SDS011;3565;53.254;10.352;2024-02-15T18:34:47;6.90;;;4.83;;
7047;SDS011;3565;53.254;10.352;2024-02-15T18:37:16;5.30;;;4.67;;
7047;SDS011;3565;53.254;10.352;2024-02-15T18:39:45;5.23;;;4.60;;
7047;SDS011;3565;53.254;10.352;2024-02-15T18:42:14;7.37;;;4.83;;
7047;SDS011;3565;53.254;10.352;2024-02-15T18:47:23;5.93;;;4.57;;
7047;SDS011;3565;53.254;10.352;2024-02-15T18:49:52;7.17;;;5.30;;
7047;SDS011;3565;53.254;10.352;2024-02-15T18:52:21;7.40;;;4.57;;
7047;SDS011;3565;53.254;10.352;2024-02-15T18:54:50;6.43;;;5.00;;
7047;SDS011;3565;53.254;10.352;2024-02-15T18:57:21;5.90;;;4.97;;
7047;SDS011;3565;53.254;10.352;2024-02-15T19:02:27;6.60;;;4.80;;
7047;SDS011;3565;53.254;10.352;2024-02-15T19:04:57;6.10;;;5.10;;
7047;SDS011;3565;53.254;10.352;2024-02-15T19:07:28;6.80;;;5.07;;
7047;SDS011;3565;53.254;10.352;2024-02-15T19:09:58;7.27;;;4.97;;
7047;SDS011;3565;53.254;10.352;2024-02-15T19:12:27;6.20;;;5.13;;
7047;SDS011;3565;53.254;10.352;2024-02-15T19:17:36;7.20;;;5.23;;
7047;SDS011;3565;53.254;10.352;2024-02-15T19:20:07;6.97;;;5.03;;
7047;SDS011;3565;53.254;10.352;2024-02-15T19:25:15;8.40;;;6.10;;